Time;durP1;ratioP1;P1;durP2;ratioP2;P2;SDS_P1;SDS_P2;PMS_P1;PMS_P2;Temp;Humidity;BMP_temperature;BMP_pressure;BME280_temperature;BME280_humidity;BME280_pressure;Samples;Min_cycle;Max_cycle;Signal;HPM_P1;HPM_P2
2023/12/14 00:00:37;;;;;;;12.65;9.73;;;;;;;5.40;100.00;101043.06;5013997;28;20048;-73
2023/12/14 00:03:02;;;;;;;13.40;9.85;;;;;;;5.36;100.00;101047.44;5033560;28;20032;-73
2023/12/14 00:05:27;;;;;;;11.30;9.65;;;;;;;5.32;100.00;101045.78;5042453;28;20037;-73
2023/12/14 00:07:53;;;;;;;12.57;9.52;;;;;;;5.45;100.00;101046.47;5042307;28;20033;-73
2023/12/14 00:10:18;;;;;;;12.85;9.68;;;;;;;5.39;100.00;101046.56;5043502;28;20036;-73
2023/12/14 00:12:44;;;;;;;12.75;9.27;;;;;;;5.37;100.00;101054.38;5042506;28;20044;-73
2023/12/14 00:15:10;;;;;;;10.82;9.70;;;;;;;5.41;100.00;101060.38;5026261;28;20095;-73
2023/12/14 00:17:35;;;;;;;11.13;9.85;;;;;;;5.47;100.00;101064.63;5037573;28;20347;-73
2023/12/14 00:20:00;;;;;;;11.07;9.10;;;;;;;5.45;100.00;101081.97;5035185;28;20039;-73
2023/12/14 00:22:26;;;;;;;13.35;9.70;;;;;;;5.44;100.00;101075.94;5035608;28;20052;-72
2023/12/14 00:24:51;;;;;;;14.02;9.73;;;;;;;5.49;100.00;101075.84;5035843;28;20289;-72
2023/12/14 00:27:16;;;;;;;12.80;9.82;;;;;;;5.46;100.00;101084.56;5035177;28;20037;-72
2023/12/14 00:29:42;;;;;;;11.27;9.98;;;;;;;5.41;100.00;101096.75;5035410;28;20342;-72
2023/12/14 00:32:07;;;;;;;11.43;9.20;;;;;;;5.45;100.00;101098.41;5035640;28;20033;-72
2023/12/14 00:34:32;;;;;;;11.90;9.75;;;;;;;5.46;100.00;101102.75;5035369;28;20083;-72
2023/12/14 00:36:58;;;;;;;11.40;9.50;;;;;;;5.42;100.00;101101.06;5032314;28;20037;-73
2023/12/14 00:39:23;;;;;;;10.85;9.20;;;;;;;5.42;100.00;101111.47;5035032;28;20033;-73
2023/12/14 00:41:49;;;;;;;10.55;9.27;;;;;;;5.31;100.00;101111.63;5035030;28;20049;-73
2023/12/14 00:44:14;;;;;;;14.65;9.48;;;;;;;5.32;100.00;101125.44;5032294;28;20068;-73
2023/12/14 00:46:41;;;;;;;11.23;8.57;;;;;;;5.30;100.00;101130.66;5013130;28;20021;-73
2023/12/14 00:49:06;;;;;;;11.35;9.13;;;;;;;5.21;100.00;101128.19;5034561;28;20368;-73
2023/12/14 00:51:32;;;;;;;10.77;8.63;;;;;;;5.18;100.00;101136.03;5030993;28;20037;-73
2023/12/14 00:53:57;;;;;;;12.32;8.90;;;;;;;5.22;100.00;101137.72;5034032;28;20044;-73
2023/12/14 00:56:22;;;;;;;10.00;9.00;;;;;;;5.21;100.00;101143.78;5025218;28;20068;-73
2023/12/14 00:58:48;;;;;;;10.38;8.73;;;;;;;5.21;100.00;101155.91;5033504;28;20338;-73
2023/12/14 01:01:13;;;;;;;11.00;8.75;;;;;;;5.18;100.00;101155.09;5033693;28;20048;-73
2023/12/14 01:03:38;;;;;;;9.98;8.63;;;;;;;5.18;100.00;101151.59;5035490;28;20053;-73
2023/12/14 01:06:04;;;;;;;10.90;8.65;;;;;;;5.16;100.00;101151.63;5033356;28;20033;-73
2023/12/14 01:08:29;;;;;;;9.00;7.38;;;;;;;5.23;100.00;101162.78;5033367;28;20427;-73
2023/12/14 01:10:55;;;;;;;9.45;7.93;;;;;;;5.13;100.00;101167.25;5033973;28;20037;-73
2023/12/14 01:13:20;;;;;;;11.70;9.25;;;;;;;5.14;100.00;101168.09;5033891;28;20060;-73
2023/12/14 01:15:45;;;;;;;8.77;7.85;;;;;;;5.17;100.00;101178.47;5033835;28;20040;-73
2023/12/14 01:18:11;;;;;;;10.63;8.02;;;;;;;5.18;100.00;101185.34;5033945;28;20037;-72
2023/12/14 01:20:36;;;;;;;10.98;8.50;;;;;;;5.17;100.00;101194.03;5034072;28;20041;-73
2023/12/14 01:23:01;;;;;;;8.48;7.65;;;;;;;5.16;100.00;101190.56;5034467;28;20041;-73
2023/12/14 01:25:27;;;;;;;11.93;8.98;;;;;;;5.17;100.00;101186.25;5034838;28;20037;-73
2023/12/14 01:27:52;;;;;;;12.40;9.25;;;;;;;5.20;100.00;101186.19;5034643;28;20033;-73
2023/12/14 01:30:17;;;;;;;14.68;9.27;;;;;;;5.21;100.00;101197.47;5034695;28;20079;-73
2023/12/14 01:32:44;;;;;;;14.23;9.73;;;;;;;5.21;100.00;101203.50;5034171;28;20053;-72
2023/12/14 01:35:09;;;;;;;14.57;10.10;;;;;;;5.22;100.00;101215.63;5034447;28;20398;-72
2023/12/14 01:37:35;;;;;;;19.20;10.05;;;;;;;5.12;100.00;101216.59;5034188;28;20279;-73
2023/12/14 01:40:00;;;;;;;14.18;9.80;;;;;;;5.15;100.00;101225.22;5016361;28;20048;-72
2023/12/14 01:42:26;;;;;;;14.23;9.63;;;;;;;5.12;100.00;101232.19;5033998;28;20041;-72
2023/12/14 01:44:51;;;;;;;16.08;10.10;;;;;;;5.06;100.00;101235.72;5034243;28;20029;-72
2023/12/14 01:47:17;;;;;;;11.30;9.18;;;;;;;5.04;100.00;101242.66;5034065;28;20033;-73
2023/12/14 01:49:42;;;;;;;17.13;10.65;;;;;;;5.04;100.00;101244.38;5033780;28;20041;-72
2023/12/14 01:52:08;;;;;;;17.38;10.32;;;;;;;5.05;100.00;101249.56;5034430;28;20057;-73
2023/12/14 01:54:33;;;;;;;16.98;10.70;;;;;;;5.05;100.00;101248.72;5033634;28;20041;-73
2023/12/14 01:56:59;;;;;;;19.38;9.88;;;;;;;5.06;100.00;101259.06;5033880;28;20133;-72
2023/12/14 01:59:25;;;;;;;14.35;9.88;;;;;;;5.13;100.00;101260.72;5034037;28;20052;-73
2023/12/14 02:01:56;;;;;;;13.63;9.10;;;;;;;5.06;100.00;101261.66;5033732;28;20269;-73
2023/12/14 02:04:23;;;;;;;15.25;10.20;;;;;;;5.09;100.00;101266.81;5040430;28;20096;-72
2023/12/14 02:06:49;;;;;;;16.67;10.38;;;;;;;5.08;100.00;101272.91;5054279;28;20367;-72
2023/12/14 02:09:14;;;;;;;17.73;11.60;;;;;;;5.06;100.00;101278.97;5053497;28;20040;-72
2023/12/14 02:11:39;;;;;;;16.05;10.00;;;;;;;5.05;100.00;101279.84;5051507;28;20041;-72
2023/12/14 02:14:06;;;;;;;13.13;9.68;;;;;;;5.07;100.00;101280.69;5033689;28;20129;-72
2023/12/14 02:16:32;;;;;;;15.40;10.60;;;;;;;5.07;100.00;101284.16;5033350;28;20390;-73
2023/12/14 02:18:57;;;;;;;17.13;10.07;;;;;;;5.03;100.00;101295.44;5033879;28;20108;-73
2023/12/14 02:21:23;;;;;;;15.23;9.32;;;;;;;5.01;100.00;101297.19;5034045;28;20037;-73
2023/12/14 02:23:48;;;;;;;17.88;9.77;;;;;;;5.00;100.00;101301.53;5033413;28;20034;-72
2023/12/14 02:26:13;;;;;;;16.08;10.15;;;;;;;5.04;100.00;101307.56;5034130;28;20079;-72
2023/12/14 02:28:39;;;;;;;20.02;10.48;;;;;;;5.09;100.00;101313.53;5033047;28;20041;-72
2023/12/14 02:31:05;;;;;;;18.58;10.05;;;;;;;5.03;100.00;101315.38;5037089;28;20369;-72
2023/12/14 02:33:30;;;;;;;13.18;9.10;;;;;;;5.00;100.00;101319.72;5037214;28;20041;-72
2023/12/14 02:35:56;;;;;;;16.17;10.43;;;;;;;4.98;100.00;101321.47;5037995;28;20100;-72
2023/12/14 02:38:21;;;;;;;14.75;9.23;;;;;;;4.97;100.00;101326.66;5037668;28;20136;-72
2023/12/14 02:40:47;;;;;;;16.15;9.07;;;;;;;5.00;100.00;101331.81;5037334;28;20060;-73
2023/12/14 02:43:13;;;;;;;18.65;9.25;;;;;;;5.02;100.00;101318.81;5037090;28;20065;-72
2023/12/14 02:45:38;;;;;;;13.77;9.27;;;;;;;5.03;100.00;101317.97;5037184;28;20363;-72
2023/12/14 02:48:04;;;;;;;23.50;9.48;;;;;;;4.98;100.00;101321.47;5037563;28;20045;-72
2023/12/14 02:50:29;;;;;;;17.25;8.75;;;;;;;5.02;100.00;101326.59;5037012;28;20360;-72
2023/12/14 02:52:55;;;;;;;13.48;8.80;;;;;;;5.07;100.00;101323.09;5037204;28;20040;-72
2023/12/14 02:55:20;;;;;;;18.80;9.57;;;;;;;5.03;100.00;101321.41;5037540;28;20045;-72
2023/12/14 02:57:45;;;;;;;14.23;9.90;;;;;;;5.00;100.00;101330.09;5037095;28;20037;-72
2023/12/14 03:00:11;;;;;;;14.25;9.00;;;;;;;4.94;100.00;101330.13;5037386;28;20079;-72
2023/12/14 03:02:37;;;;;;;15.70;9.50;;;;;;;4.97;100.00;101330.13;5037095;28;20083;-72
2023/12/14 03:05:02;;;;;;;13.75;9.18;;;;;;;5.00;100.00;101334.41;5036843;28;20045;-72
2023/12/14 03:07:28;;;;;;;12.30;8.77;;;;;;;5.00;100.00;101335.28;5035842;28;20041;-72
2023/12/14 03:09:53;;;;;;;12.38;8.57;;;;;;;5.03;100.00;101351.72;5035677;28;20271;-72
2023/12/14 03:12:18;;;;;;;17.25;9.35;;;;;;;5.05;100.00;101357.75;5035902;28;20253;-72
2023/12/14 03:14:44;;;;;;;11.43;8.30;;;;;;;4.99;100.00;101351.72;5034938;28;20041;-72
2023/12/14 03:17:12;;;;;;;12.65;7.80;;;;;;;4.99;100.00;101358.66;5036434;28;20033;-72
2023/12/14 03:19:41;;;;;;;12.80;8.45;;;;;;;5.00;100.00;101360.38;5035795;28;20041;-72
2023/12/14 03:22:07;;;;;;;17.38;9.00;;;;;;;5.02;100.00;101361.25;5036425;28;20408;-72
2023/12/14 03:24:33;;;;;;;10.43;7.68;;;;;;;5.02;100.00;101361.25;5036298;28;20022;-72
2023/12/14 03:26:58;;;;;;;13.95;8.45;;;;;;;5.01;100.00;101359.50;5036682;28;20365;-73
2023/12/14 03:29:23;;;;;;;13.10;8.18;;;;;;;4.97;100.00;101358.66;5036335;28;20394;-72
2023/12/14 03:31:49;;;;;;;19.38;8.63;;;;;;;4.94;100.00;101363.88;5036548;28;20037;-72
2023/12/14 03:34:14;;;;;;;19.08;9.55;;;;;;;4.93;100.00;101363.88;5036956;28;20040;-73
2023/12/14 03:36:39;;;;;;;15.43;8.93;;;;;;;4.97;100.00;101368.19;5036418;28;20128;-73
2023/12/14 03:39:05;;;;;;;19.95;8.85;;;;;;;4.93;100.00;101369.97;5036712;28;20387;-73
2023/12/14 03:41:31;;;;;;;16.55;8.55;;;;;;;4.95;100.00;101368.22;5035395;28;20280;-73
2023/12/14 03:43:57;;;;;;;16.40;9.20;;;;;;;4.93;100.00;101382.06;5036421;28;20182;-73
2023/12/14 03:46:22;;;;;;;16.10;9.05;;;;;;;4.90;100.00;101382.09;5036285;28;20217;-73
2023/12/14 03:48:47;;;;;;;18.50;9.32;;;;;;;4.93;100.00;101385.53;5035941;28;20252;-73
2023/12/14 03:51:13;;;;;;;13.98;9.00;;;;;;;4.91;100.00;101389.00;5036171;28;20271;-73
2023/12/14 03:53:39;;;;;;;19.98;9.60;;;;;;;4.86;100.00;101396.84;5035956;28;20402;-73
2023/12/14 03:56:05;;;;;;;11.20;7.70;;;;;;;4.88;100.00;101389.03;5035891;28;20248;-73
2023/12/14 03:58:30;;;;;;;13.70;7.80;;;;;;;4.90;100.00;101392.50;5035590;28;20048;-73
2023/12/14 04:00:55;;;;;;;13.52;7.97;;;;;;;4.84;100.00;101388.22;5036138;28;20037;-73
2023/12/14 04:03:21;;;;;;;14.85;8.35;;;;;;;4.79;100.00;101389.97;5036094;28;20079;-73
2023/12/14 04:05:46;;;;;;;17.60;7.70;;;;;;;4.77;100.00;101395.19;5040345;28;20049;-73
2023/12/14 04:08:11;;;;;;;14.98;7.50;;;;;;;4.81;100.00;101401.19;5035910;28;20048;-73
2023/12/14 04:10:37;;;;;;;11.15;7.90;;;;;;;4.86;100.00;101404.63;5035554;28;20048;-73
2023/12/14 04:13:02;;;;;;;11.05;7.00;;;;;;;4.83;100.00;101406.38;5035969;28;20067;-73
2023/12/14 04:15:28;;;;;;;12.98;7.53;;;;;;;4.85;100.00;101415.03;5035557;28;20033;-73
2023/12/14 04:17:53;;;;;;;12.43;7.63;;;;;;;4.83;100.00;101414.16;5036177;28;20384;-73
2023/12/14 04:20:18;;;;;;;14.23;6.88;;;;;;;4.84;100.00;101421.06;5035485;28;20357;-73
2023/12/14 04:22:44;;;;;;;16.75;7.55;;;;;;;4.86;100.00;101415.00;5035503;28;20041;-73
2023/12/14 04:25:10;;;;;;;18.33;7.18;;;;;;;4.88;100.00;101430.56;5036233;28;20029;-73
2023/12/14 04:27:35;;;;;;;17.80;7.15;;;;;;;4.94;100.00;101438.31;5035436;28;20048;-73
2023/12/14 04:30:00;;;;;;;19.33;6.68;;;;;;;4.91;100.00;101446.09;5035879;28;20029;-73
2023/12/14 04:32:26;;;;;;;12.07;6.32;;;;;;;4.92;100.00;101447.84;5035558;28;20100;-73
2023/12/14 04:34:51;;;;;;;9.93;6.07;;;;;;;4.90;100.00;101449.59;5035486;28;20053;-73
2023/12/14 04:37:17;;;;;;;10.18;5.90;;;;;;;4.81;100.00;101456.56;5035298;28;20040;-73
2023/12/14 04:39:42;;;;;;;9.85;5.55;;;;;;;4.77;100.00;101470.44;5035532;28;20332;-73
2023/12/14 04:42:08;;;;;;;12.35;5.53;;;;;;;4.80;100.00;101472.13;5035332;28;20040;-73
2023/12/14 04:44:33;;;;;;;11.07;5.20;;;;;;;4.80;100.00;101491.19;5035231;28;20049;-73
2023/12/14 04:46:58;;;;;;;6.65;4.47;;;;;;;4.84;100.00;101504.13;5035329;28;20093;-73
2023/12/14 04:49:24;;;;;;;5.35;3.90;;;;;;;4.80;100.00;101496.38;5035761;28;20029;-73
2023/12/14 04:51:49;;;;;;;8.30;4.38;;;;;;;4.91;100.00;101505.81;5035078;28;20463;-73
2023/12/14 04:54:14;;;;;;;11.52;4.53;;;;;;;4.79;100.00;101510.22;5035005;28;20036;-73
2023/12/14 04:56:41;;;;;;;6.90;4.43;;;;;;;4.79;100.00;101520.59;5034803;28;20037;-73
2023/12/14 04:59:06;;;;;;;8.90;4.72;;;;;;;4.83;100.00;101523.19;5037520;28;20308;-73
2023/12/14 05:01:32;;;;;;;5.63;4.18;;;;;;;4.86;100.00;101528.31;5044443;28;20332;-73
2023/12/14 05:03:57;;;;;;;15.07;4.93;;;;;;;4.87;100.00;101532.66;5036840;28;20382;-73
2023/12/14 05:06:22;;;;;;;9.18;4.28;;;;;;;4.91;100.00;101536.94;5033892;28;20029;-73
2023/12/14 05:08:48;;;;;;;10.25;4.78;;;;;;;4.87;100.00;101538.69;5033616;28;20119;-73
2023/12/14 05:11:13;;;;;;;6.57;4.15;;;;;;;4.87;100.00;101541.28;5033538;28;20163;-73
2023/12/14 05:13:39;;;;;;;7.20;4.45;;;;;;;4.86;100.00;101543.91;5033990;28;20427;-73
2023/12/14 05:16:05;;;;;;;8.95;4.55;;;;;;;4.83;100.00;101546.53;5033974;28;20037;-73
2023/12/14 05:18:31;;;;;;;4.65;3.65;;;;;;;4.84;100.00;101545.66;5033580;28;20197;-73
2023/12/14 05:20:56;;;;;;;9.07;4.15;;;;;;;4.83;100.00;101559.50;5034016;28;20037;-73
2023/12/14 05:23:21;;;;;;;5.90;4.07;;;;;;;4.86;100.00;101559.47;5035022;28;20106;-73
2023/12/14 05:25:47;;;;;;;5.05;3.88;;;;;;;4.89;100.00;101562.91;5034633;28;20053;-73
2023/12/14 05:28:13;;;;;;;5.80;3.80;;;;;;;4.87;100.00;101562.06;5034219;28;20398;-73
2023/12/14 05:30:38;;;;;;;4.25;3.50;;;;;;;4.92;100.00;101562.06;5033929;28;20351;-73
2023/12/14 05:33:04;;;;;;;7.95;4.72;;;;;;;4.90;100.00;101567.25;5034178;28;20331;-73
2023/12/14 05:35:29;;;;;;;5.38;3.97;;;;;;;4.91;100.00;101571.59;5034025;28;20038;-73
2023/12/14 05:37:54;;;;;;;8.68;4.30;;;;;;;4.79;100.00;101564.69;5034113;28;20099;-73
2023/12/14 05:40:20;;;;;;;6.38;4.30;;;;;;;4.79;100.00;101567.31;5034320;28;20044;-73
2023/12/14 05:42:45;;;;;;;4.88;4.05;;;;;;;4.77;100.00;101560.41;5034407;28;20787;-73
2023/12/14 05:45:11;;;;;;;8.73;4.35;;;;;;;4.83;100.00;101560.38;5033823;28;20026;-73
2023/12/14 05:47:37;;;;;;;5.85;4.30;;;;;;;4.77;100.00;101571.63;5034284;28;20277;-73
2023/12/14 05:50:03;;;;;;;8.50;5.22;;;;;;;4.68;100.00;101579.47;5034218;28;20036;-73
2023/12/14 05:52:28;;;;;;;4.68;4.20;;;;;;;4.78;100.00;101583.75;5033882;28;20252;-73
2023/12/14 05:54:53;;;;;;;5.10;3.88;;;;;;;4.83;100.00;101590.66;5033882;28;20033;-73
2023/12/14 05:57:19;;;;;;;5.60;3.70;;;;;;;4.90;100.00;101595.81;5033784;28;20345;-72
2023/12/14 05:59:44;;;;;;;9.20;4.38;;;;;;;4.92;100.00;101603.59;5033502;28;20041;-73
2023/12/14 06:02:10;;;;;;;8.60;4.93;;;;;;;4.93;100.00;101611.38;5034117;28;20037;-73
2023/12/14 06:04:35;;;;;;;6.10;4.55;;;;;;;4.98;100.00;101609.63;5032578;28;20045;-73
2023/12/14 06:07:00;;;;;;;5.53;4.65;;;;;;;4.96;100.00;101613.06;5033902;28;20403;-73
2023/12/14 06:09:35;;;;;;;7.07;4.35;;;;;;;4.94;100.00;101607.88;5015817;28;20075;-73
2023/12/14 06:12:04;;;;;;;5.30;4.57;;;;;;;4.85;100.00;101607.94;5033951;28;20324;-73
2023/12/14 06:14:30;;;;;;;5.18;4.55;;;;;;;4.85;100.00;101620.91;5033132;28;20041;-73
2023/12/14 06:16:56;;;;;;;6.03;5.10;;;;;;;4.81;100.00;101627.84;5033930;28;20091;-73
2023/12/14 06:19:21;;;;;;;5.90;4.38;;;;;;;4.79;100.00;101636.50;5034119;28;20037;-73
2023/12/14 06:21:47;;;;;;;6.13;4.25;;;;;;;4.81;100.00;101635.63;5030338;28;20033;-73
2023/12/14 06:24:13;;;;;;;6.30;4.93;;;;;;;4.78;100.00;101653.81;5032764;28;20037;-73
2023/12/14 06:26:43;;;;;;;7.38;4.50;;;;;;;4.77;100.00;101653.81;5032577;28;20064;-73
2023/12/14 06:29:12;;;;;;;7.28;4.40;;;;;;;4.73;100.00;101665.94;5033281;28;20093;-73
2023/12/14 06:31:40;;;;;;;;;;;;;;;4.77;100.00;101672.00;5033472;28;20248;-73
2023/12/14 06:34:06;;;;;;;7.57;4.95;;;;;;;4.74;100.00;101685.81;5033871;28;19917;-73
2023/12/14 06:36:32;;;;;;;5.22;4.22;;;;;;;4.74;100.00;101678.03;5032640;28;20395;-73
2023/12/14 06:38:59;;;;;;;6.70;4.78;;;;;;;4.72;100.00;101684.97;5033454;28;20069;-73
2023/12/14 06:41:26;;;;;;;5.10;4.60;;;;;;;4.69;100.00;101690.16;5033808;28;20108;-73
2023/12/14 06:43:51;;;;;;;5.32;4.47;;;;;;;4.69;100.00;101697.09;5033111;28;20044;-73
2023/12/14 06:46:17;;;;;;;7.13;4.55;;;;;;;4.67;100.00;101697.09;5028633;28;20029;-73
2023/12/14 06:48:42;;;;;;;5.68;4.70;;;;;;;4.67;100.00;101706.63;5027747;28;20362;-73
2023/12/14 06:51:08;;;;;;;5.10;4.38;;;;;;;4.69;100.00;101712.66;5032703;28;20064;-73
2023/12/14 06:53:34;;;;;;;6.40;5.40;;;;;;;4.65;100.00;101706.63;5032751;28;20264;-73
2023/12/14 06:56:00;;;;;;;8.30;5.47;;;;;;;4.64;100.00;101715.28;5030008;28;20279;-73
2023/12/14 06:58:25;;;;;;;7.50;5.15;;;;;;;4.63;100.00;101718.72;5031702;28;20388;-73
2023/12/14 07:00:50;;;;;;;7.82;5.00;;;;;;;4.63;100.00;101720.47;5033977;28;20040;-73
2023/12/14 07:03:16;;;;;;;7.15;4.50;;;;;;;4.63;100.00;101721.31;5036109;28;20037;-73
2023/12/14 07:05:41;;;;;;;7.07;5.75;;;;;;;4.56;100.00;101727.38;5042113;28;20059;-73
2023/12/14 07:08:07;;;;;;;6.90;4.93;;;;;;;4.55;100.00;101723.09;5042640;28;20033;-73
2023/12/14 07:10:32;;;;;;;9.88;5.57;;;;;;;4.55;100.00;101731.72;5033425;28;20048;-73
2023/12/14 07:12:58;;;;;;;8.77;5.50;;;;;;;4.56;100.00;101728.25;5043753;28;20041;-73
2023/12/14 07:15:24;;;;;;;7.57;5.30;;;;;;;4.55;100.00;101738.66;5039419;28;20037;-73
2023/12/14 07:17:49;;;;;;;6.18;5.40;;;;;;;4.56;100.00;101742.94;5042508;28;20060;-73
2023/12/14 07:20:15;;;;;;;9.30;5.70;;;;;;;4.60;100.00;101742.06;5040468;28;20037;-73
2023/12/14 07:22:41;;;;;;;7.85;5.53;;;;;;;4.53;100.00;101762.00;5042799;28;20354;-73
2023/12/14 07:25:07;;;;;;;9.05;5.85;;;;;;;4.49;100.00;101754.19;5037475;28;20037;-73
2023/12/14 07:27:32;;;;;;;6.25;5.65;;;;;;;4.48;100.00;101752.50;5043763;28;20095;-73
2023/12/14 07:29:57;;;;;;;7.97;5.50;;;;;;;4.43;100.00;101763.72;5044224;28;20036;-73
2023/12/14 07:32:23;;;;;;;11.05;6.47;;;;;;;4.41;100.00;101767.19;5041123;28;20297;-73
2023/12/14 07:34:48;;;;;;;8.15;5.72;;;;;;;4.38;100.00;101765.47;5044335;28;20553;-73
2023/12/14 07:37:14;;;;;;;6.65;5.13;;;;;;;4.37;100.00;101768.91;5044535;28;20216;-73
2023/12/14 07:39:39;;;;;;;7.05;5.30;;;;;;;4.39;100.00;101769.78;5042016;28;20301;-73
2023/12/14 07:42:05;;;;;;;6.88;5.05;;;;;;;4.38;100.00;101773.25;5041823;28;20029;-73
2023/12/14 07:44:31;;;;;;;7.10;5.03;;;;;;;4.39;100.00;101767.19;5044841;28;20053;-73
2023/12/14 07:46:59;;;;;;;8.30;4.88;;;;;;;4.39;100.00;101767.19;5040937;28;20056;-73
2023/12/14 07:49:25;;;;;;;7.72;4.80;;;;;;;4.37;100.00;101760.28;5045816;28;20205;-73
2023/12/14 07:51:51;;;;;;;8.32;5.15;;;;;;;4.35;100.00;101762.00;5042569;28;20095;-73
2023/12/14 07:54:16;;;;;;;8.20;5.63;;;;;;;4.34;100.00;101766.31;5045226;28;20034;-73
2023/12/14 07:56:42;;;;;;;5.65;5.00;;;;;;;4.34;100.00;101768.03;5039652;28;20285;-73
2023/12/14 07:59:07;;;;;;;6.32;5.22;;;;;;;4.30;100.00;101771.50;5045889;28;20415;-73
2023/12/14 08:01:36;;;;;;;8.02;5.30;;;;;;;4.31;100.00;101773.22;5038918;28;20055;-73
2023/12/14 08:04:02;;;;;;;7.22;4.93;;;;;;;4.28;100.00;101784.47;5044124;28;20036;-73
2023/12/14 08:06:28;;;;;;;6.28;5.68;;;;;;;4.25;100.00;101784.47;5030623;28;20040;-73
2023/12/14 08:08:54;;;;;;;9.10;5.60;;;;;;;4.21;100.00;101798.28;5033102;28;20041;-73
2023/12/14 08:11:20;;;;;;;6.35;5.43;;;;;;;4.16;100.00;101802.59;5032994;28;20691;-73
2023/12/14 08:13:47;;;;;;;9.00;5.28;;;;;;;4.11;100.00;101802.63;5032423;28;20099;-73
2023/12/14 08:16:12;;;;;;;6.00;5.00;;;;;;;4.06;100.00;101813.81;5032601;28;20121;-73
2023/12/14 08:18:38;;;;;;;6.32;5.65;;;;;;;4.01;100.00;101816.41;5035989;28;20576;-73
2023/12/14 08:21:03;;;;;;;5.90;5.35;;;;;;;3.98;100.00;101825.06;5032780;28;20037;-73
2023/12/14 08:23:30;;;;;;;6.18;5.57;;;;;;;4.00;100.00;101831.09;5032647;28;20037;-73
2023/12/14 08:25:58;;;;;;;6.40;5.53;;;;;;;3.99;100.00;101826.78;5032362;28;20408;-73
2023/12/14 08:28:24;;;;;;;7.45;5.95;;;;;;;3.99;100.00;101842.31;5029735;28;20048;-73
2023/12/14 08:30:50;;;;;;;7.50;5.60;;;;;;;3.98;100.00;101844.91;5030467;28;20033;-73
2023/12/14 08:33:15;;;;;;;6.15;5.55;;;;;;;3.98;100.00;101856.16;5030858;28;20079;-73
2023/12/14 08:35:40;;;;;;;7.72;5.97;;;;;;;3.99;100.00;101857.88;5030253;28;20044;-73
2023/12/14 08:38:06;;;;;;;8.77;6.40;;;;;;;4.00;100.00;101870.00;5025834;28;20111;-73
2023/12/14 08:40:31;;;;;;;9.18;6.15;;;;;;;4.03;100.00;101876.91;5030309;28;20033;-73
2023/12/14 08:42:57;;;;;;;6.18;5.57;;;;;;;4.03;100.00;101871.72;5029768;28;20984;-73
2023/12/14 08:45:22;;;;;;;7.30;5.80;;;;;;;4.06;100.00;101870.84;5030412;28;20033;-73
2023/12/14 08:47:48;;;;;;;11.43;6.38;;;;;;;4.10;100.00;101881.25;5029699;28;20272;-73
2023/12/14 08:50:13;;;;;;;8.13;6.18;;;;;;;4.15;100.00;101887.31;5029904;28;21127;-73
2023/12/14 08:52:38;;;;;;;6.60;5.57;;;;;;;4.19;100.00;101885.59;5035469;28;20080;-73
2023/12/14 08:55:04;;;;;;;5.90;5.15;;;;;;;4.24;100.00;101886.47;5032543;28;20147;-73
2023/12/14 08:57:30;;;;;;;10.05;6.65;;;;;;;4.30;100.00;101896.00;5036795;28;20037;-73
2023/12/14 08:59:56;;;;;;;10.02;6.00;;;;;;;4.33;100.00;101893.38;5024900;28;20037;-73
2023/12/14 09:02:22;;;;;;;10.07;7.40;;;;;;;4.34;100.00;101900.31;5030589;28;20332;-73
2023/12/14 09:04:47;;;;;;;12.90;7.20;;;;;;;4.32;100.00;101899.44;5028521;28;20413;-73
2023/12/14 09:07:12;;;;;;;7.88;6.80;;;;;;;4.34;100.00;101898.56;5032091;28;20082;-73
2023/12/14 09:09:38;;;;;;;11.00;7.25;;;;;;;4.36;100.00;101904.63;5033079;28;20244;-73
2023/12/14 09:12:03;;;;;;;6.75;6.13;;;;;;;4.39;100.00;101904.66;5033306;28;20041;-73
2023/12/14 09:14:29;;;;;;;8.73;6.93;;;;;;;4.43;100.00;101910.69;5032595;28;20040;-73
2023/12/14 09:16:55;;;;;;;10.70;7.43;;;;;;;4.41;100.00;101905.50;5032009;28;20051;-73
2023/12/14 09:19:20;;;;;;;8.63;6.60;;;;;;;4.47;100.00;101909.84;5033037;28;20038;-73
2023/12/14 09:21:46;;;;;;;7.80;6.07;;;;;;;4.49;100.00;101909.84;5014408;28;20029;-73
2023/12/14 09:24:11;;;;;;;7.03;6.32;;;;;;;4.52;100.00;101912.47;5032638;28;20071;-73
2023/12/14 09:26:36;;;;;;;8.80;7.18;;;;;;;4.53;100.00;101921.94;5033046;28;20037;-73
2023/12/14 09:29:02;;;;;;;8.32;6.47;;;;;;;4.52;100.00;101917.66;5033004;28;20056;-73
2023/12/14 09:31:28;;;;;;;7.88;6.60;;;;;;;4.53;100.00;101928.03;5031983;28;20045;-73
2023/12/14 09:33:53;;;;;;;9.65;8.15;;;;;;;4.47;100.00;101937.50;5033221;28;20033;-73
2023/12/14 09:36:19;;;;;;;7.75;6.95;;;;;;;4.50;100.00;101935.78;5032335;28;20264;-73
2023/12/14 09:38:45;;;;;;;10.98;6.72;;;;;;;4.55;100.00;101944.47;5033342;28;20037;-73
2023/12/14 09:41:11;;;;;;;15.43;7.45;;;;;;;4.58;100.00;101959.16;5033119;28;20029;-73
2023/12/14 09:43:37;;;;;;;11.55;7.63;;;;;;;4.52;100.00;101962.59;5033240;28;20036;-73
2023/12/14 09:46:03;;;;;;;8.60;7.05;;;;;;;4.59;100.00;101968.69;5034237;28;20063;-73
2023/12/14 09:48:29;;;;;;;8.10;6.85;;;;;;;4.64;100.00;101968.69;5033721;28;20033;-73
2023/12/14 09:50:55;;;;;;;7.10;5.93;;;;;;;4.69;100.00;101978.19;5034016;28;20224;-73
2023/12/14 09:53:20;;;;;;;7.43;6.43;;;;;;;4.73;100.00;101971.28;5034111;28;20096;-73
2023/12/14 09:55:45;;;;;;;8.23;7.22;;;;;;;4.74;100.00;101970.44;5032951;28;20041;-73
2023/12/14 09:58:12;;;;;;;9.95;7.65;;;;;;;4.75;100.00;101969.59;5033245;28;20041;-73
2023/12/14 10:00:42;;;;;;;12.55;7.85;;;;;;;4.72;100.00;101966.97;5033137;28;20029;-73
2023/12/14 10:03:21;;;;;;;9.75;7.38;;;;;;;4.72;100.00;101972.16;5033271;28;20068;-73
2023/12/14 10:05:48;;;;;;;12.60;8.20;;;;;;;4.69;100.00;101978.19;5018914;28;20056;-73
2023/12/14 10:08:14;;;;;;;12.32;7.22;;;;;;;4.65;100.00;101975.63;5033579;28;20025;-73
2023/12/14 10:10:39;;;;;;;9.88;7.53;;;;;;;4.70;100.00;101979.09;5033181;28;20037;-73
2023/12/14 10:13:04;;;;;;;12.25;7.72;;;;;;;4.71;100.00;101983.41;5033457;28;20087;-73
2023/12/14 10:15:43;;;;;;;12.93;7.78;;;;;;;4.68;100.00;101986.88;5026219;28;20076;-73
2023/12/14 10:18:08;;;;;;;10.38;7.55;;;;;;;4.76;100.00;101979.94;5032878;28;20071;-73
2023/12/14 10:20:34;;;;;;;9.43;6.95;;;;;;;4.84;100.00;101995.56;5034030;28;20236;-73
2023/12/14 10:22:59;;;;;;;10.63;7.68;;;;;;;4.89;100.00;101988.63;5032729;28;20040;-73
2023/12/14 10:25:25;;;;;;;9.15;7.05;;;;;;;4.92;100.00;101983.44;5034694;28;20207;-73
2023/12/14 10:27:54;;;;;;;9.07;7.50;;;;;;;4.97;100.00;101981.72;5032756;28;20088;-73
2023/12/14 10:30:19;;;;;;;;;;;;;;;5.00;100.00;101986.91;5033330;28;20052;-73
2023/12/14 10:32:48;;;;;;;13.77;8.98;;;;;;;5.00;100.00;101981.72;5032574;28;19924;-73
2023/12/14 10:35:16;;;;;;;9.98;7.55;;;;;;;5.03;100.00;101987.78;5032924;28;20044;-73
2023/12/14 10:37:42;;;;;;;13.45;8.02;;;;;;;4.99;100.00;101992.97;5032150;28;20118;-73
2023/12/14 10:40:10;;;;;;;9.43;7.30;;;;;;;5.02;100.00;101996.41;5030472;28;20045;-73
2023/12/14 10:42:36;;;;;;;10.13;7.70;;;;;;;5.05;100.00;101991.25;5032227;28;20029;-73
2023/12/14 10:45:03;;;;;;;9.88;6.95;;;;;;;5.08;100.00;102002.50;5032187;28;20347;-73
2023/12/14 10:47:29;;;;;;;9.20;7.57;;;;;;;5.10;100.00;102005.97;5032383;28;20328;-73
2023/12/14 10:49:56;;;;;;;13.48;7.28;;;;;;;5.13;100.00;102010.28;5032581;28;20049;-73
2023/12/14 10:52:24;;;;;;;11.50;8.35;;;;;;;5.11;100.00;102015.50;5035854;28;20047;-73
2023/12/14 10:54:58;;;;;;;10.63;8.30;;;;;;;5.08;100.00;102028.47;5035878;28;20060;-73
2023/12/14 10:57:24;;;;;;;11.15;7.13;;;;;;;5.11;100.00;102022.41;5035600;28;20337;-73
2023/12/14 10:59:49;;;;;;;9.32;7.85;;;;;;;5.14;100.00;102027.59;5036474;28;20079;-73
2023/12/14 11:02:15;;;;;;;9.60;7.45;;;;;;;5.12;100.00;102035.38;5038273;28;20282;-73
2023/12/14 11:04:58;;;;;;;11.10;6.60;;;;;;;5.09;100.00;102024.13;5040923;28;20042;-73
2023/12/14 11:07:50;;;;;;;7.20;6.53;;;;;;;5.08;100.00;102032.81;5025718;28;20037;-73
2023/12/14 11:10:22;;;;;;;9.77;7.18;;;;;;;5.12;100.00;102037.13;5013268;28;20055;-73
2023/12/14 11:12:54;;;;;;;13.70;7.32;;;;;;;5.15;100.00;102029.34;5045861;28;20032;-73
2023/12/14 11:15:19;;;;;;;9.35;6.68;;;;;;;5.17;100.00;102033.66;5042209;28;20041;-73